Time;durP1;ratioP1;P1;durP2;ratioP2;P2;SDS_P1;SDS_P2;PMS_P1;PMS_P2;Temp;Humidity;BMP_temperature;BMP_pressure;BME280_temperature;BME280_humidity;BME280_pressure;Samples;Min_cycle;Max_cycle;Signal;HPM_P1;HPM_P2
2023/09/09 00:00:39;;;;;;;25.15;14.15;;;;;;;19.91;100.00;101434.59;5074052;28;20146;-69
2023/09/09 00:03:05;;;;;;;25.75;15.57;;;;;;;19.86;100.00;101436.50;5074410;28;20028;-69
2023/09/09 00:05:32;;;;;;;25.65;16.13;;;;;;;19.81;100.00;101427.72;5089565;28;20052;-69
2023/09/09 00:07:57;;;;;;;23.88;14.57;;;;;;;19.80;100.00;101436.66;5074024;28;20033;-69
2023/09/09 00:10:23;;;;;;;23.33;15.18;;;;;;;19.78;100.00;101434.03;5074021;28;20048;-70
2023/09/09 00:12:48;;;;;;;24.90;16.08;;;;;;;19.79;100.00;101430.44;5073953;28;20379;-68
2023/09/09 00:15:13;;;;;;;25.40;16.05;;;;;;;19.85;100.00;101430.28;5073925;28;20028;-69
2023/09/09 00:17:39;;;;;;;25.05;14.75;;;;;;;19.93;100.00;101431.88;5089630;28;20060;-70
2023/09/09 00:20:11;;;;;;;24.73;15.18;;;;;;;19.91;100.00;101426.56;5073624;28;20029;-69
2023/09/09 00:22:37;;;;;;;25.02;15.63;;;;;;;19.91;100.00;101429.25;5073641;28;20028;-70
2023/09/09 00:25:03;;;;;;;24.52;16.15;;;;;;;19.89;100.00;101427.50;5073696;28;20471;-67
2023/09/09 00:27:29;;;;;;;24.55;16.27;;;;;;;19.91;100.00;101426.56;5073507;28;20029;-69
2023/09/09 00:29:54;;;;;;;26.10;18.10;;;;;;;19.75;100.00;101434.06;5073488;28;20031;-65
2023/09/09 00:32:19;;;;;;;26.02;18.80;;;;;;;19.74;100.00;101426.94;5089382;28;20031;-67
2023/09/09 00:34:45;;;;;;;24.00;14.20;;;;;;;19.69;100.00;101420.81;5073287;28;20083;-62
2023/09/09 00:37:10;;;;;;;25.65;18.02;;;;;;;19.63;100.00;101424.53;5073334;28;20113;-65
2023/09/09 00:39:35;;;;;;;26.17;17.60;;;;;;;19.71;100.00;101424.34;5073463;28;20028;-67
2023/09/09 00:42:01;;;;;;;26.85;17.83;;;;;;;19.68;100.00;101419.06;5088544;28;20443;-65
2023/09/09 00:44:26;;;;;;;24.60;15.60;;;;;;;19.58;100.00;101425.56;5073363;28;20036;-66
2023/09/09 00:46:52;;;;;;;25.23;16.80;;;;;;;19.65;100.00;101416.44;5073216;28;20043;-66
2023/09/09 00:49:17;;;;;;;26.95;14.93;;;;;;;19.58;100.00;101420.19;5073453;28;20045;-65
2023/09/09 00:51:44;;;;;;;25.35;16.52;;;;;;;19.63;100.00;101429.91;5073247;28;20036;-67
2023/09/09 00:54:14;;;;;;;23.80;14.43;;;;;;;19.55;100.00;101420.28;5073010;28;20036;-66
2023/09/09 00:56:39;;;;;;;24.33;14.60;;;;;;;19.55;100.00;101420.28;5072927;28;20070;-66
2023/09/09 00:59:05;;;;;;;24.67;16.35;;;;;;;19.51;100.00;101427.50;5073139;28;20028;-67
2023/09/09 01:01:32;;;;;;;24.48;16.27;;;;;;;19.47;100.00;101423.09;5071677;28;20032;-66
2023/09/09 01:03:57;;;;;;;24.88;15.07;;;;;;;19.45;100.00;101431.19;5072825;28;20064;-67
2023/09/09 01:06:23;;;;;;;24.98;14.70;;;;;;;19.43;100.00;101421.44;5073107;28;20063;-66
2023/09/09 01:08:49;;;;;;;25.17;17.60;;;;;;;19.49;100.00;101423.97;5072794;28;20044;-67
2023/09/09 01:11:14;;;;;;;26.83;18.48;;;;;;;19.54;100.00;101427.41;5072870;28;20028;-67
2023/09/09 01:13:40;;;;;;;27.30;19.10;;;;;;;19.59;100.00;101422.84;5073200;28;20376;-66
2023/09/09 01:16:07;;;;;;;26.63;18.63;;;;;;;19.48;100.00;101422.19;5072888;28;20348;-67
2023/09/09 01:18:34;;;;;;;28.33;22.13;;;;;;;19.48;100.00;101424.88;5073042;28;20415;-67
2023/09/09 01:21:08;;;;;;;25.25;17.50;;;;;;;19.46;100.00;101429.41;5072856;28;20016;-66
2023/09/09 01:23:34;;;;;;;25.13;17.88;;;;;;;19.40;100.00;101422.38;5072915;28;20036;-67
2023/09/09 01:26:00;;;;;;;27.73;20.05;;;;;;;19.33;100.00;101423.44;5072592;28;20024;-66
2023/09/09 01:28:25;;;;;;;27.52;19.48;;;;;;;19.27;100.00;101418.25;5072848;28;20079;-66
2023/09/09 01:30:51;;;;;;;28.15;19.42;;;;;;;19.23;100.00;101416.53;5072714;28;20025;-67
2023/09/09 01:33:17;;;;;;;31.55;26.10;;;;;;;19.31;100.00;101418.13;5068350;28;20131;-67
2023/09/09 01:35:44;;;;;;;26.35;18.60;;;;;;;19.28;100.00;101414.63;5072768;28;20484;-66
2023/09/09 01:38:09;;;;;;;28.92;19.73;;;;;;;19.11;100.00;101410.53;5072460;28;20060;-66
2023/09/09 01:40:34;;;;;;;29.95;22.08;;;;;;;18.99;100.00;101419.72;5072375;28;20550;-66
2023/09/09 01:43:00;;;;;;;27.42;19.20;;;;;;;18.95;100.00;101419.84;5072677;28;20025;-66
2023/09/09 01:45:25;;;;;;;26.48;19.25;;;;;;;18.84;100.00;101420.00;5072650;28;20095;-65
2023/09/09 01:47:51;;;;;;;25.45;17.55;;;;;;;18.81;100.00;101418.31;5072365;28;20045;-65
2023/09/09 01:50:16;;;;;;;27.63;21.92;;;;;;;18.79;100.00;101422.78;5072968;28;20118;-67
2023/09/09 01:52:41;;;;;;;27.83;20.95;;;;;;;18.76;100.00;101419.31;5072315;28;20029;-68
2023/09/09 01:55:07;;;;;;;29.05;20.10;;;;;;;18.66;100.00;101426.63;5076033;28;20036;-67
2023/09/09 01:57:32;;;;;;;26.75;21.58;;;;;;;18.71;100.00;101424.75;5076800;28;20103;-65
2023/09/09 01:59:58;;;;;;;30.70;23.88;;;;;;;18.73;100.00;101425.59;5076283;28;20104;-66
2023/09/09 02:02:23;;;;;;;26.52;20.20;;;;;;;18.75;100.00;101426.44;5076635;28;20060;-66
2023/09/09 02:04:49;;;;;;;24.98;17.75;;;;;;;18.68;100.00;101414.09;5076454;28;20028;-65
2023/09/09 02:07:14;;;;;;;30.13;24.15;;;;;;;18.72;100.00;101417.59;5076203;28;20063;-67
2023/09/09 02:09:41;;;;;;;29.60;23.27;;;;;;;18.67;100.00;101420.38;5076298;28;20039;-65
2023/09/09 02:12:07;;;;;;;29.00;23.13;;;;;;;18.60;100.00;101419.59;5076518;28;20037;-65
2023/09/09 02:14:33;;;;;;;28.92;24.15;;;;;;;18.54;100.00;101418.88;5076011;28;20497;-66
2023/09/09 02:16:58;;;;;;;28.83;23.70;;;;;;;18.46;100.00;101411.88;5076188;28;20081;-66
2023/09/09 02:19:24;;;;;;;29.73;25.15;;;;;;;18.50;100.00;101418.03;5075962;28;20119;-65
2023/09/09 02:21:50;;;;;;;28.65;24.65;;;;;;;18.47;100.00;101424.31;5075897;28;20064;-65
2023/09/09 02:24:15;;;;;;;28.08;19.77;;;;;;;18.32;100.00;101415.69;5076046;28;20025;-63
2023/09/09 02:26:41;;;;;;;28.98;23.88;;;;;;;18.24;100.00;101426.53;5076084;28;20032;-67
2023/09/09 02:29:06;;;;;;;29.67;21.02;;;;;;;18.18;100.00;101427.53;5075810;28;20132;-70
2023/09/09 02:31:31;;;;;;;28.88;21.77;;;;;;;18.16;100.00;101428.47;5075922;28;20025;-70
2023/09/09 02:33:57;;;;;;;28.23;21.45;;;;;;;18.15;100.00;101426.72;5075635;28;20481;-70
2023/09/09 02:36:22;;;;;;;27.00;22.08;;;;;;;18.14;100.00;101424.94;5075836;28;20040;-70
2023/09/09 02:38:48;;;;;;;29.10;24.23;;;;;;;18.14;100.00;101423.16;5075855;28;20021;-70
2023/09/09 02:41:13;;;;;;;31.98;25.08;;;;;;;18.20;100.00;101420.38;5075518;28;20490;-70
2023/09/09 02:43:38;;;;;;;36.20;32.33;;;;;;;18.27;100.00;101427.34;5075461;28;20055;-69
2023/09/09 02:46:04;;;;;;;40.55;36.45;;;;;;;18.32;100.00;101427.28;5075654;28;20479;-70
2023/09/09 02:48:30;;;;;;;42.08;37.80;;;;;;;18.42;100.00;101436.00;5075274;28;20525;-70
2023/09/09 02:50:55;;;;;;;38.17;34.15;;;;;;;18.42;100.00;101436.91;5075622;28;20035;-70
2023/09/09 02:53:21;;;;;;;40.38;36.28;;;;;;;18.42;100.00;101434.25;5075535;28;20032;-70
2023/09/09 02:55:47;;;;;;;45.25;40.60;;;;;;;18.39;100.00;101439.66;5075160;28;20082;-70
2023/09/09 02:58:14;;;;;;;47.88;42.97;;;;;;;18.38;100.00;101428.97;5075487;28;20109;-71
2023/09/09 03:00:42;;;;;;;44.17;39.83;;;;;;;18.25;100.00;101433.66;5075200;28;20024;-70
2023/09/09 03:03:07;;;;;;;44.13;39.65;;;;;;;18.29;100.00;101436.25;5073870;28;20464;-70
2023/09/09 03:05:36;;;;;;;45.67;41.15;;;;;;;18.26;100.00;101441.66;5074955;28;20039;-70
2023/09/09 03:08:05;;;;;;;45.35;40.75;;;;;;;18.30;100.00;101437.13;5075008;28;20036;-71
2023/09/09 03:10:31;;;;;;;40.25;36.15;;;;;;;18.27;100.00;101432.72;5075063;28;20024;-70
2023/09/09 03:12:57;;;;;;;39.42;35.22;;;;;;;18.16;100.00;101432.03;5074976;28;20037;-70
2023/09/09 03:15:23;;;;;;;43.95;39.53;;;;;;;18.14;100.00;101436.53;5075081;28;20028;-67
2023/09/09 03:17:49;;;;;;;38.38;34.28;;;;;;;18.10;100.00;101435.72;5090556;28;20040;-68
2023/09/09 03:20:14;;;;;;;39.25;35.15;;;;;;;18.12;100.00;101439.22;5075021;28;20060;-67
2023/09/09 03:22:39;;;;;;;37.83;34.03;;;;;;;18.02;100.00;101424.25;5074725;28;20033;-65
2023/09/09 03:25:06;;;;;;;36.20;32.40;;;;;;;18.05;100.00;101434.91;5074684;28;20028;-66
2023/09/09 03:27:32;;;;;;;35.28;31.58;;;;;;;17.98;100.00;101430.56;5074936;28;20115;-64
2023/09/09 03:29:58;;;;;;;31.77;28.38;;;;;;;17.94;100.00;101434.22;5074697;28;20100;-67
2023/09/09 03:32:25;;;;;;;32.85;29.25;;;;;;;17.78;100.00;101429.09;5074774;28;20035;-64
2023/09/09 03:34:50;;;;;;;34.42;30.83;;;;;;;17.66;100.00;101425.72;5074801;28;20055;-66
2023/09/09 03:37:16;;;;;;;37.42;33.53;;;;;;;17.50;100.00;101423.28;5090131;28;20033;-67
2023/09/09 03:39:42;;;;;;;34.63;30.92;;;;;;;17.45;100.00;101418.94;5074449;28;20033;-64
2023/09/09 03:42:07;;;;;;;34.00;30.40;;;;;;;17.43;100.00;101419.81;5073331;28;20578;-62
2023/09/09 03:44:32;;;;;;;36.17;32.47;;;;;;;17.46;100.00;101420.69;5074282;28;20029;-65
2023/09/09 03:46:58;;;;;;;33.20;28.75;;;;;;;17.35;100.00;101419.03;5074358;28;20032;-63
2023/09/09 03:49:23;;;;;;;33.60;29.98;;;;;;;17.29;100.00;101423.63;5074348;28;20057;-66
2023/09/09 03:51:48;;;;;;;34.58;30.85;;;;;;;17.28;100.00;101413.81;5072929;28;20123;-64
2023/09/09 03:54:14;;;;;;;33.97;30.38;;;;;;;17.21;100.00;101424.59;5072913;28;20050;-63
2023/09/09 03:56:39;;;;;;;34.72;31.02;;;;;;;17.15;100.00;101430.00;5074497;28;20036;-65
2023/09/09 03:59:04;;;;;;;35.28;30.60;;;;;;;17.10;100.00;101425.66;5074118;28;20029;-63
2023/09/09 04:01:30;;;;;;;35.20;31.45;;;;;;;17.13;100.00;101433.63;5074332;28;20032;-61
2023/09/09 04:03:56;;;;;;;34.42;30.77;;;;;;;17.11;100.00;101427.41;5073917;28;20025;-62
2023/09/09 04:06:22;;;;;;;33.22;29.63;;;;;;;17.08;100.00;101429.22;5073868;28;20036;-63
2023/09/09 04:08:47;;;;;;;35.63;31.83;;;;;;;17.00;100.00;101433.78;5074337;28;20029;-65
2023/09/09 04:11:12;;;;;;;35.67;31.92;;;;;;;16.93;100.00;101437.44;5073776;28;20041;-63
2023/09/09 04:13:38;;;;;;;36.47;32.63;;;;;;;16.84;100.00;101435.72;5073724;28;20032;-65
2023/09/09 04:16:04;;;;;;;36.40;32.53;;;;;;;16.85;100.00;101436.63;5073436;28;20020;-65
2023/09/09 04:18:29;;;;;;;38.00;34.05;;;;;;;16.84;100.00;101427.72;5073684;28;20028;-63
2023/09/09 04:20:55;;;;;;;41.65;37.35;;;;;;;16.83;100.00;101433.94;5073791;28;20078;-64
2023/09/09 04:23:20;;;;;;;42.75;38.22;;;;;;;16.81;100.00;101432.22;5073787;28;20067;-66
2023/09/09 04:25:46;;;;;;;43.13;38.60;;;;;;;16.81;100.00;101435.75;5072308;28;20143;-65
2023/09/09 04:28:13;;;;;;;42.65;38.10;;;;;;;16.78;100.00;101433.13;5073425;28;20032;-67
2023/09/09 04:30:40;;;;;;;42.97;38.58;;;;;;;16.73;100.00;101435.88;5073710;28;20079;-66
2023/09/09 04:33:12;;;;;;;46.55;41.85;;;;;;;16.57;100.00;101436.91;5073302;28;20071;-67
2023/09/09 04:35:39;;;;;;;81.53;44.13;;;;;;;16.49;100.00;101444.16;5073559;28;20027;-67
2023/09/09 04:38:05;;;;;;;70.53;44.88;;;;;;;16.42;100.00;101445.97;5089329;28;20036;-67
2023/09/09 04:40:31;;;;;;;44.40;39.92;;;;;;;16.43;100.00;101444.22;5073211;28;20064;-65
2023/09/09 04:42:56;;;;;;;41.28;36.97;;;;;;;16.48;100.00;101439.69;5073332;28;20040;-65
2023/09/09 04:45:23;;;;;;;37.92;33.95;;;;;;;16.39;100.00;101446.03;5073349;28;20036;-66
2023/09/09 04:47:49;;;;;;;42.78;33.80;;;;;;;16.43;100.00;101453.09;5072943;28;20135;-65
2023/09/09 04:50:15;;;;;;;39.78;35.47;;;;;;;16.33;100.00;101452.28;5071883;28;20036;-67
2023/09/09 04:52:41;;;;;;;42.83;36.08;;;;;;;16.31;100.00;101453.19;5073198;28;20029;-66
2023/09/09 04:55:06;;;;;;;46.00;35.80;;;;;;;16.27;100.00;101451.50;5072973;28;20082;-64
2023/09/09 04:57:32;;;;;;;72.60;40.72;;;;;;;16.30;100.00;101451.47;5072858;28;20032;-70
2023/09/09 04:59:57;;;;;;;72.93;42.33;;;;;;;16.23;100.00;101455.97;5073168;28;20029;-70
2023/09/09 05:02:22;;;;;;;51.90;38.65;;;;;;;16.20;100.00;101456.00;5072983;28;20025;-70
2023/09/09 05:04:48;;;;;;;41.72;37.22;;;;;;;16.23;100.00;101461.28;5072834;28;20077;-68
2023/09/09 05:07:13;;;;;;;52.20;40.30;;;;;;;16.24;100.00;101457.72;5073117;28;20025;-70
2023/09/09 05:09:39;;;;;;;40.33;36.13;;;;;;;16.27;100.00;101457.69;5072856;28;20104;-70
2023/09/09 05:12:04;;;;;;;47.95;42.75;;;;;;;16.30;100.00;101457.66;5072941;28;20063;-70
2023/09/09 05:14:30;;;;;;;44.88;39.95;;;;;;;16.32;100.00;101458.53;5072741;28;20031;-70
2023/09/09 05:16:55;;;;;;;51.90;46.00;;;;;;;16.45;100.00;101463.75;5072697;28;20055;-70
2023/09/09 05:19:22;;;;;;;83.25;49.80;;;;;;;16.52;100.00;101462.78;5072967;28;20387;-70
2023/09/09 05:21:48;;;;;;;118.00;53.10;;;;;;;16.57;100.00;101460.94;5072651;28;20551;-70
2023/09/09 05:24:13;;;;;;;177.07;61.88;;;;;;;16.63;100.00;101470.66;5072562;28;20104;-70
2023/09/09 05:26:39;;;;;;;176.57;63.08;;;;;;;16.63;100.00;101470.66;5073121;28;20368;-70
2023/09/09 05:29:04;;;;;;;187.65;66.03;;;;;;;16.65;100.00;101482.22;5072628;28;20025;-70
2023/09/09 05:31:30;;;;;;;220.63;68.95;;;;;;;16.58;100.00;101481.41;5072513;28;20070;-70
2023/09/09 05:33:55;;;;;;;230.57;68.07;;;;;;;16.54;100.00;101477.91;5072644;28;20045;-69
2023/09/09 05:36:20;;;;;;;216.98;71.47;;;;;;;16.54;100.00;101487.66;5072538;28;20024;-69
2023/09/09 05:38:46;;;;;;;228.70;73.38;;;;;;;16.41;100.00;101494.03;5072546;28;20265;-68
2023/09/09 05:41:11;;;;;;;160.00;72.43;;;;;;;16.42;100.00;101490.47;5072911;28;20025;-68
2023/09/09 05:43:36;;;;;;;235.57;76.28;;;;;;;16.43;100.00;101494.91;5072406;28;20475;-68
2023/09/09 05:46:02;;;;;;;176.90;72.25;;;;;;;16.41;100.00;101491.34;5072459;28;20028;-68
2023/09/09 05:48:27;;;;;;;188.93;73.05;;;;;;;16.32;100.00;101500.34;5072521;28;20415;-67
2023/09/09 05:50:55;;;;;;;143.73;70.85;;;;;;;16.24;100.00;101500.41;5072385;28;20033;-69
2023/09/09 05:53:21;;;;;;;157.20;72.68;;;;;;;16.22;100.00;101494.19;5072835;28;20032;-68
2023/09/09 05:55:46;;;;;;;161.18;74.38;;;;;;;16.22;100.00;101507.53;5087879;28;20047;-69
2023/09/09 05:58:12;;;;;;;137.75;78.07;;;;;;;16.28;100.00;101502.16;5072566;28;20037;-68
2023/09/09 06:00:37;;;;;;;184.23;74.85;;;;;;;16.35;100.00;101509.22;5072505;28;20025;-68
2023/09/09 06:03:03;;;;;;;147.77;73.40;;;;;;;16.43;100.00;101506.47;5072511;28;20032;-68
2023/09/09 06:05:28;;;;;;;148.70;75.75;;;;;;;16.52;100.00;101514.38;5072194;28;20391;-68
2023/09/09 06:07:53;;;;;;;185.25;74.88;;;;;;;16.55;100.00;101516.13;5072498;28;20415;-67
2023/09/09 06:10:19;;;;;;;156.65;74.75;;;;;;;16.58;100.00;101510.75;5072228;28;20052;-60
2023/09/09 06:12:45;;;;;;;174.98;74.47;;;;;;;16.65;100.00;101516.94;5070525;28;20055;-65
2023/09/09 06:15:11;;;;;;;162.98;74.05;;;;;;;16.67;100.00;101518.69;5068013;28;20037;-66
2023/09/09 06:17:39;;;;;;;141.05;77.20;;;;;;;16.71;100.00;101519.53;5070731;28;20024;-62
2023/09/09 06:20:05;;;;;;;138.88;75.72;;;;;;;16.69;100.00;101518.69;5071855;28;20036;-67
2023/09/09 06:22:32;;;;;;;201.20;76.18;;;;;;;16.71;100.00;101524.88;5072135;28;20097;-67
2023/09/09 06:24:57;;;;;;;116.72;71.80;;;;;;;16.87;100.00;101526.50;5071310;28;20028;-68
2023/09/09 06:27:22;;;;;;;92.20;72.90;;;;;;;17.10;100.00;101524.50;5072135;28;20044;-65
2023/09/09 06:29:48;;;;;;;127.55;71.93;;;;;;;17.19;100.00;101535.06;5071998;28;20029;-64
2023/09/09 06:32:13;;;;;;;127.53;73.78;;;;;;;17.27;100.00;101529.59;5071824;28;20024;-66
2023/09/09 06:34:38;;;;;;;98.97;74.45;;;;;;;17.37;100.00;101528.56;5071476;28;20039;-61
2023/09/09 06:37:04;;;;;;;93.93;72.85;;;;;;;17.50;100.00;101526.63;5071479;28;20070;-62
2023/09/09 06:39:29;;;;;;;82.53;71.00;;;;;;;17.62;100.00;101521.13;5067919;28;20111;-61
2023/09/09 06:41:54;;;;;;;89.60;67.60;;;;;;;17.59;100.00;101524.72;5070958;28;20480;-60
2023/09/09 06:44:20;;;;;;;105.85;71.13;;;;;;;17.58;100.00;101522.06;5071243;28;20464;-63
2023/09/09 06:46:45;;;;;;;86.10;70.55;;;;;;;17.64;100.00;101527.31;5070715;28;20032;-61
2023/09/09 06:49:11;;;;;;;108.00;72.88;;;;;;;17.64;100.00;101523.78;5067811;28;20066;-60
2023/09/09 06:51:36;;;;;;;169.55;75.20;;;;;;;17.59;100.00;101523.81;5071347;28;20043;-60
2023/09/09 06:54:02;;;;;;;80.43;72.63;;;;;;;17.76;100.00;101532.47;5071628;28;20024;-61
2023/09/09 06:56:28;;;;;;;81.80;73.07;;;;;;;17.91;100.00;101527.84;5071709;28;20089;-62
2023/09/09 06:58:53;;;;;;;218.98;75.88;;;;;;;17.90;100.00;101528.78;5065221;28;20100;-65
2023/09/09 07:01:19;;;;;;;130.77;75.38;;;;;;;17.87;100.00;101539.50;5066245;28;20012;-61
2023/09/09 07:03:44;;;;;;;89.60;74.35;;;;;;;17.95;100.00;101537.59;5072307;28;20065;-64
2023/09/09 07:06:09;;;;;;;80.03;71.68;;;;;;;18.13;100.00;101536.44;5074958;28;20059;-65
2023/09/09 07:08:39;;;;;;;83.38;74.60;;;;;;;18.25;100.00;101530.88;5074951;28;20032;-62
2023/09/09 07:11:04;;;;;;;143.95;72.32;;;;;;;18.28;100.00;101537.97;5074746;28;20392;-61
2023/09/09 07:13:30;;;;;;;146.82;76.53;;;;;;;18.27;100.00;101534.38;5056825;28;20029;-62
2023/09/09 07:15:55;;;;;;;198.52;78.78;;;;;;;18.33;100.00;101538.75;5074669;28;20481;-62
2023/09/09 07:18:22;;;;;;;161.63;75.40;;;;;;;18.43;100.00;101543.03;5075043;28;20039;-63
2023/09/09 07:20:48;;;;;;;110.60;75.65;;;;;;;18.44;100.00;101544.81;5074782;28;20032;-61
2023/09/09 07:23:17;;;;;;;86.03;76.82;;;;;;;18.61;100.00;101546.31;5074191;28;20033;-62
2023/09/09 07:25:43;;;;;;;95.22;73.65;;;;;;;18.71;100.00;101550.63;5074936;28;20119;-63
2023/09/09 07:28:09;;;;;;;115.28;73.53;;;;;;;18.85;100.00;101555.69;5074915;28;20028;-62
2023/09/09 07:30:34;;;;;;;89.45;74.28;;;;;;;18.89;100.00;101549.41;5073283;28;20032;-62
2023/09/09 07:33:00;;;;;;;89.43;73.05;;;;;;;19.09;100.00;101551.69;5074766;28;20027;-64
2023/09/09 07:35:25;;;;;;;97.93;70.03;;;;;;;19.08;100.00;101549.94;5073984;28;20037;-62
2023/09/09 07:37:56;;;;;;;81.28;67.53;;;;;;;19.27;100.00;101557.59;5074857;28;20043;-65
2023/09/09 07:40:21;;;;;;;79.50;69.90;;;;;;;19.46;100.00;101556.28;5074668;28;20028;-64
2023/09/09 07:42:48;;;;;;;85.72;72.60;;;;;;;19.47;100.00;101563.41;5074303;28;20510;-64
2023/09/09 07:45:13;;;;;;;81.75;74.05;;;;;;;19.72;100.00;101546.78;5073009;28;20028;-68
2023/09/09 07:47:38;;;;;;;80.68;72.30;;;;;;;19.76;100.00;101551.19;5074241;28;20040;-64
2023/09/09 07:50:05;;;;;;;81.43;72.93;;;;;;;19.85;100.00;101560.84;5074406;28;20116;-65
2023/09/09 07:52:30;;;;;;;79.65;71.90;;;;;;;20.14;100.00;101553.88;5073583;28;20063;-66
2023/09/09 07:54:55;;;;;;;80.43;72.68;;;;;;;20.30;100.00;101554.38;5074329;28;20032;-63
2023/09/09 07:57:21;;;;;;;84.50;76.57;;;;;;;20.41;100.00;101560.38;5074100;28;20033;-65
2023/09/09 07:59:47;;;;;;;78.93;71.63;;;;;;;20.54;100.00;101550.19;5074088;28;20120;-65
2023/09/09 08:02:13;;;;;;;83.18;74.53;;;;;;;20.41;100.00;101557.69;5074341;28;20110;-65
2023/09/09 08:04:39;;;;;;;79.55;72.32;;;;;;;20.44;100.00;101562.09;5072571;28;20476;-66
2023/09/09 08:07:04;;;;;;;81.30;73.80;;;;;;;20.37;100.00;101566.72;5072653;28;20037;-68
2023/09/09 08:09:29;;;;;;;80.10;72.60;;;;;;;20.33;100.00;101557.03;5074094;28;20032;-66
2023/09/09 08:11:55;;;;;;;80.43;73.07;;;;;;;20.18;100.00;101555.56;5089687;28;20036;-66
2023/09/09 08:14:20;;;;;;;86.20;78.22;;;;;;;20.11;100.00;101565.59;5074021;28;20418;-67
2023/09/09 08:16:45;;;;;;;84.18;76.57;;;;;;;20.20;100.00;101568.03;5073827;28;20025;-65
2023/09/09 08:19:11;;;;;;;79.88;72.65;;;;;;;20.39;100.00;101567.59;5073668;28;20491;-63
2023/09/09 08:21:36;;;;;;;81.05;73.75;;;;;;;20.45;100.00;101570.13;5073917;28;20036;-68
2023/09/09 08:24:02;;;;;;;81.38;73.88;;;;;;;20.48;100.00;101572.72;5070578;28;20117;-69
2023/09/09 08:26:28;;;;;;;81.00;73.68;;;;;;;20.52;100.00;101574.41;5076059;28;20395;-61
2023/09/09 08:28:54;;;;;;;79.13;72.00;;;;;;;20.63;100.00;101575.94;5073384;28;20040;-67
2023/09/09 08:31:20;;;;;;;80.10;73.00;;;;;;;20.68;100.00;101577.63;5073211;28;20490;-68
2023/09/09 08:33:46;;;;;;;78.15;71.15;;;;;;;20.79;100.00;101574.63;5073472;28;20033;-63
2023/09/09 08:36:11;;;;;;;79.03;71.57;;;;;;;20.96;100.00;101582.25;5071327;28;20031;-63
2023/09/09 08:38:37;;;;;;;75.70;68.75;;;;;;;21.40;100.00;101573.84;5073480;28;20028;-63
2023/09/09 08:41:09;;;;;;;72.28;65.78;;;;;;;21.80;100.00;101571.78;5073611;28;20029;-61
2023/09/09 08:43:56;;;;;;;76.50;69.70;;;;;;;21.87;100.00;101576.94;5071915;28;20532;-62
2023/09/09 08:46:22;;;;;;;69.60;63.20;;;;;;;22.15;100.00;101572.47;5070525;28;20777;-64
2023/09/09 08:48:51;;;;;;;66.25;60.05;;;;;;;23.01;100.00;101572.25;5072849;28;20052;-63
2023/09/09 08:51:19;;;;;;;62.90;57.00;;;;;;;23.91;100.00;101572.50;5073010;28;20115;-67
2023/09/09 08:53:45;;;;;;;58.25;52.78;;;;;;;24.59;100.00;101583.19;5072659;28;20081;-65
2023/09/09 08:56:12;;;;;;;56.67;51.28;;;;;;;25.26;100.00;101575.75;5072530;28;20029;-66
2023/09/09 08:58:40;;;;;;;54.58;49.38;;;;;;;25.89;100.00;101561.09;5072892;28;20479;-61
2023/09/09 09:01:06;;;;;;;49.70;45.00;;;;;;;26.41;100.00;101571.19;5072802;28;20036;-64
2023/09/09 09:03:33;;;;;;;47.67;43.00;;;;;;;26.77;100.00;101576.56;5072431;28;20028;-65
2023/09/09 09:06:01;;;;;;;41.90;37.72;;;;;;;26.91;100.00;101577.66;5072526;28;20052;-65
2023/09/09 09:08:27;;;;;;;41.28;37.20;;;;;;;27.43;100.00;101583.03;5069281;28;20685;-64
2023/09/09 09:10:55;;;;;;;45.20;40.83;;;;;;;27.69;100.00;101580.69;5088302;28;20147;-63
2023/09/09 09:13:20;;;;;;;41.22;37.13;;;;;;;28.31;100.00;101579.91;5072132;28;20117;-64
2023/09/09 09:15:46;;;;;;;33.65;30.05;;;;;;;28.50;100.00;101580.56;5072880;28;20058;-63
2023/09/09 09:18:12;;;;;;;38.45;34.50;;;;;;;28.73;100.00;101593.78;5070949;28;20020;-70
2023/09/09 09:20:40;;;;;;;40.03;36.08;;;;;;;28.87;100.00;101591.09;5072093;28;20033;-73
2023/09/09 09:23:09;;;;;;;36.92;33.22;;;;;;;29.36;100.00;101577.16;5071300;28;20032;-66
2023/09/09 09:25:44;;;;;;;34.03;30.40;;;;;;;29.54;100.00;101591.44;5071790;28;20028;-63
2023/09/09 09:28:11;;;;;;;36.45;32.55;;;;;;;29.33;100.00;101590.09;5073023;28;20090;-69
2023/09/09 09:30:37;;;;;;;34.63;31.02;;;;;;;29.58;100.00;101591.25;5072673;28;20028;-70
2023/09/09 09:33:02;;;;;;;33.47;29.92;;;;;;;30.06;100.00;101587.19;5072799;28;20027;-71
2023/09/09 09:35:30;;;;;;;34.88;31.27;;;;;;;30.46;100.00;101580.94;5071988;28;20471;-72
2023/09/09 09:38:00;;;;;;;33.13;29.73;;;;;;;30.64;100.00;101580.63;5072491;28;20082;-71
2023/09/09 09:40:27;;;;;;;33.92;30.33;;;;;;;31.08;100.00;101573.97;5072493;28;20047;-70
2023/09/09 09:42:52;;;;;;;31.10;27.80;;;;;;;31.22;100.00;101582.03;5072543;28;20079;-76
2023/09/09 09:45:22;;;;;;;30.10;26.60;;;;;;;31.70;100.00;101580.47;5072178;28;20036;-72
2023/09/09 09:47:47;;;;;;;26.70;21.05;;;;;;;31.97;100.00;101581.13;5071563;28;20051;-74
2023/09/09 09:50:22;;;;;;;21.35;12.27;;;;;;;32.47;77.16;101577.41;5075740;28;20113;-69
2023/09/09 09:53:08;;;;;;;23.23;15.32;;;;;;;33.11;87.40;101590.66;5072109;28;20024;-71
2023/09/09 09:55:36;;;;;;;26.65;20.33;;;;;;;32.99;73.60;101576.09;5070781;28;20029;-72
2023/09/09 09:58:07;;;;;;;25.10;18.98;;;;;;;33.29;77.63;101582.91;5069610;28;20357;-72
2023/09/09 10:00:33;;;;;;;24.23;17.20;;;;;;;33.91;69.52;101583.34;5064753;28;20025;-72
2023/09/09 10:03:02;;;;;;;23.63;16.08;;;;;;;34.27;65.55;101588.66;5070942;28;20467;-72
2023/09/09 10:05:33;;;;;;;24.08;17.55;;;;;;;34.36;66.68;101585.97;5071967;28;20067;-70
2023/09/09 10:08:13;;;;;;;24.52;17.20;;;;;;;34.83;62.05;101568.28;5072038;28;20073;-66
2023/09/09 10:10:45;;;;;;;23.50;16.25;;;;;;;35.30;63.87;101582.47;5069365;28;20082;-66
2023/09/09 10:13:27;;;;;;;24.33;16.10;;;;;;;35.75;64.38;101579.28;5071225;28;20525;-68
2023/09/09 10:15:55;;;;;;;25.50;17.02;;;;;;;35.72;56.78;101582.34;5075119;28;20107;-66
2023/09/09 10:18:22;;;;;;;22.08;13.60;;;;;;;36.05;54.04;101583.00;5075762;28;20028;-68
2023/09/09 10:20:49;;;;;;;20.83;11.40;;;;;;;36.31;51.94;101585.22;5076035;28;20031;-68
2023/09/09 10:23:17;;;;;;;19.48;10.60;;;;;;;36.86;50.74;101581.88;5075920;28;20024;-69
2023/09/09 10:25:43;;;;;;;18.55;8.20;;;;;;;37.30;47.05;101586.84;5091011;28;20021;-69
2023/09/09 10:28:09;;;;;;;18.48;8.32;;;;;;;37.57;47.15;101579.59;5075783;28;20111;-69
2023/09/09 10:30:35;;;;;;;20.67;10.50;;;;;;;37.79;44.52;101584.75;5074658;28;20116;-65
2023/09/09 10:33:06;;;;;;;21.15;10.05;;;;;;;37.94;44.24;101587.81;5078320;28;20024;-63
2023/09/09 10:35:33;;;;;;;20.75;11.35;;;;;;;38.02;43.37;101584.28;5068417;28;20559;-64
2023/09/09 10:38:02;;;;;;;21.52;12.60;;;;;;;38.37;42.88;101577.06;5068790;28;20044;-65
2023/09/09 10:40:29;;;;;;;21.90;13.88;;;;;;;38.61;43.26;101573.66;5072911;28;20044;-65
2023/09/09 10:42:54;;;;;;;21.70;12.30;;;;;;;38.89;41.42;101571.63;5071601;28;20033;-66
2023/09/09 10:45:25;;;;;;;20.77;12.18;;;;;;;39.07;41.13;101578.97;5068086;28;20086;-66
2023/09/09 10:48:06;;;;;;;22.15;14.07;;;;;;;39.34;41.83;101569.66;5070971;28;20044;-65
2023/09/09 10:50:46;;;;;;;21.60;13.57;;;;;;;39.52;42.46;101575.09;5073285;28;20111;-64
2023/09/09 10:53:30;;;;;;;20.33;10.95;;;;;;;39.78;41.71;101578.84;5070539;28;20032;-68
2023/09/09 10:56:20;;;;;;;20.38;11.52;;;;;;;39.83;38.03;101580.09;5076141;28;20111;-66
2023/09/09 10:58:46;;;;;;;19.90;9.87;;;;;;;39.91;37.49;101579.22;5075152;28;20569;-69